createdAt,value
2018-02-23T00:00:29.106Z,8.10
2018-02-23T00:02:56.567Z,8.90
2018-02-23T00:05:24.054Z,9.97
2018-02-23T00:07:51.527Z,7.63
2018-02-23T00:10:18.989Z,8.47
2018-02-23T00:12:46.456Z,8.70
2018-02-23T00:15:13.923Z,8.87
2018-02-23T00:17:42.155Z,8.80
2018-02-23T00:20:09.625Z,8.50
2018-02-23T00:22:42.153Z,7.50
2018-02-23T00:25:09.665Z,8.87
2018-02-23T00:27:37.120Z,8.20
2018-02-23T00:30:05.382Z,8.83
2018-02-23T00:32:33.136Z,8.90
2018-02-23T00:35:00.629Z,8.70
2018-02-23T00:37:28.092Z,8.63
2018-02-23T00:39:55.541Z,9.30
2018-02-23T00:42:22.999Z,8.90
2018-02-23T00:44:51.223Z,8.43
2018-02-23T00:47:18.691Z,7.93
2018-02-23T00:49:46.149Z,8.60
2018-02-23T00:52:13.613Z,8.60
2018-02-23T00:54:41.067Z,8.40
2018-02-23T00:57:08.537Z,7.97
2018-02-23T00:59:36.009Z,9.10
2018-02-23T01:02:03.461Z,9.30
2018-02-23T01:04:30.921Z,8.23
2018-02-23T01:06:58.378Z,8.70
2018-02-23T01:09:25.903Z,8.93
2018-02-23T01:11:53.375Z,10.20
2018-02-23T01:14:20.844Z,8.10
2018-02-23T01:16:48.285Z,9.00
2018-02-23T01:19:15.741Z,9.30
2018-02-23T01:21:43.194Z,8.83
2018-02-23T01:24:10.655Z,8.53
2018-02-23T01:26:38.126Z,8.97
2018-02-23T01:29:05.578Z,7.83
2018-02-23T01:31:33.056Z,8.90
2018-02-23T01:34:00.511Z,9.20
2018-02-23T01:36:28.727Z,9.43
2018-02-23T01:38:56.186Z,9.33
2018-02-23T01:41:23.642Z,8.20
2018-02-23T01:43:51.099Z,9.03
2018-02-23T01:46:18.573Z,9.10
2018-02-23T01:48:46.865Z,9.30
2018-02-23T01:53:49.076Z,9.90
2018-02-23T01:56:17.291Z,8.60
2018-02-23T01:58:44.747Z,8.70
2018-02-23T02:01:13.011Z,11.63
2018-02-23T02:03:40.488Z,9.67
2018-02-23T02:06:07.939Z,10.13
2018-02-23T02:08:35.394Z,10.53
2018-02-23T02:11:02.842Z,9.37
2018-02-23T02:13:30.298Z,9.50
2018-02-23T02:15:57.763Z,10.57
2018-02-23T02:18:25.213Z,9.80
2018-02-23T02:20:52.674Z,8.50
2018-02-23T02:23:20.135Z,10.33
2018-02-23T02:25:47.627Z,10.67
2018-02-23T02:28:15.102Z,9.43
2018-02-23T02:30:43.329Z,10.23
2018-02-23T02:33:10.790Z,9.83
2018-02-23T02:35:38.249Z,9.20
2018-02-23T02:38:05.706Z,10.70
2018-02-23T02:40:33.168Z,9.90
2018-02-23T02:43:01.441Z,10.33
2018-02-23T02:45:29.610Z,10.53
2018-02-23T02:47:57.074Z,10.93
2018-02-23T02:50:25.097Z,10.20
2018-02-23T02:52:53.317Z,12.43
2018-02-23T02:55:20.790Z,9.80
2018-02-23T02:57:48.257Z,10.37
2018-02-23T03:00:15.748Z,10.73
2018-02-23T03:02:43.206Z,10.40
2018-02-23T03:05:10.688Z,10.90
2018-02-23T03:07:38.143Z,10.00
2018-02-23T03:10:05.617Z,10.50
2018-02-23T03:12:33.075Z,10.13
2018-02-23T03:15:00.533Z,11.30
2018-02-23T03:17:28.013Z,10.50
2018-02-23T03:19:55.492Z,11.43
2018-02-23T03:22:22.951Z,10.43
2018-02-23T03:24:50.417Z,10.63
2018-02-23T03:27:17.909Z,10.87
2018-02-23T03:29:45.380Z,10.50
2018-02-23T03:32:12.840Z,10.60
2018-02-23T03:34:40.317Z,11.73
2018-02-23T03:37:07.786Z,12.23
2018-02-23T03:39:36.001Z,10.40
2018-02-23T03:42:03.469Z,12.07
2018-02-23T03:44:30.951Z,10.67
2018-02-23T03:46:58.421Z,9.40
2018-02-23T03:49:26.653Z,11.20
2018-02-23T03:51:54.130Z,10.93
2018-02-23T03:54:21.586Z,12.27
2018-02-23T03:56:49.058Z,11.70
2018-02-23T03:59:16.602Z,10.97
2018-02-23T04:01:44.068Z,11.37
2018-02-23T04:04:11.580Z,11.87
2018-02-23T04:06:39.059Z,11.10
2018-02-23T04:09:06.592Z,10.40
2018-02-23T04:11:34.058Z,10.63
2018-02-23T04:14:01.536Z,11.47
2018-02-23T04:16:29.757Z,12.00
2018-02-23T04:18:57.978Z,10.73
2018-02-23T04:21:25.488Z,11.27
2018-02-23T04:23:52.951Z,11.50
2018-02-23T04:26:20.431Z,10.47
2018-02-23T04:28:47.899Z,11.07
2018-02-23T04:31:15.358Z,11.60
2018-02-23T04:33:42.813Z,11.50
2018-02-23T04:36:10.274Z,11.00
2018-02-23T04:38:37.726Z,11.63
2018-02-23T04:41:05.193Z,11.57
2018-02-23T04:43:32.648Z,12.17
2018-02-23T04:46:00.105Z,11.73
2018-02-23T04:48:27.567Z,12.00
2018-02-23T04:50:55.053Z,11.47
2018-02-23T04:53:22.522Z,11.57
2018-02-23T04:55:50.750Z,11.17
2018-02-23T04:58:18.218Z,11.10
2018-02-23T05:00:45.686Z,11.33
2018-02-23T05:03:13.146Z,13.07
2018-02-23T05:05:40.617Z,11.53
2018-02-23T05:08:08.846Z,11.60
2018-02-23T05:10:36.302Z,11.93
2018-02-23T05:13:04.555Z,12.20
2018-02-23T05:15:32.010Z,11.50
2018-02-23T05:17:59.493Z,14.03
2018-02-23T05:20:26.969Z,12.30
2018-02-23T05:22:54.441Z,12.60
2018-02-23T05:25:21.944Z,12.00
2018-02-23T05:27:49.413Z,13.20
2018-02-23T05:30:16.885Z,12.60
2018-02-23T05:32:44.346Z,12.60
2018-02-23T05:35:11.814Z,13.47
2018-02-23T05:37:39.282Z,11.30
2018-02-23T05:40:07.530Z,14.40
2018-02-23T05:42:35.008Z,12.80
2018-02-23T05:45:02.471Z,13.43
2018-02-23T05:47:29.936Z,12.17
2018-02-23T05:49:58.174Z,14.10
2018-02-23T05:52:25.639Z,13.57
2018-02-23T05:54:53.132Z,13.60
2018-02-23T05:57:21.848Z,12.70
2018-02-23T05:59:49.310Z,13.53
2018-02-23T06:02:16.767Z,13.80
2018-02-23T06:04:44.231Z,14.20
2018-02-23T06:07:11.696Z,13.73
2018-02-23T06:09:39.157Z,14.20
2018-02-23T06:12:06.634Z,14.00
2018-02-23T06:14:34.100Z,15.37
2018-02-23T06:17:01.579Z,15.20
2018-02-23T06:19:35.569Z,15.87
2018-02-23T06:22:03.805Z,15.83
2018-02-23T06:24:31.278Z,13.87
2018-02-23T06:26:58.739Z,16.83
2018-02-23T06:29:26.198Z,15.53
2018-02-23T06:31:53.676Z,14.50
2018-02-23T06:34:21.919Z,15.77
2018-02-23T06:36:49.390Z,14.93
2018-02-23T06:39:16.880Z,16.13
2018-02-23T06:41:45.127Z,15.10
2018-02-23T06:44:12.585Z,14.47
2018-02-23T06:46:40.062Z,15.17
2018-02-23T06:49:08.285Z,15.13
2018-02-23T06:51:35.749Z,15.13
2018-02-23T06:54:03.213Z,15.10
2018-02-23T06:56:30.670Z,17.07
2018-02-23T06:58:58.141Z,17.17
2018-02-23T07:01:25.603Z,14.80
2018-02-23T07:03:53.061Z,16.00
2018-02-23T07:06:20.594Z,15.40
2018-02-23T07:08:48.078Z,15.20
2018-02-23T07:11:16.417Z,15.87
2018-02-23T07:13:43.866Z,15.67
2018-02-23T07:16:11.350Z,17.57
2018-02-23T07:18:38.870Z,15.67
2018-02-23T07:21:06.333Z,14.80
2018-02-23T07:23:33.802Z,16.50
2018-02-23T07:26:01.269Z,15.30
2018-02-23T07:28:28.736Z,15.87
2018-02-23T07:30:56.265Z,15.90
2018-02-23T07:33:23.763Z,17.03
2018-02-23T07:35:51.225Z,16.27
2018-02-23T07:38:19.459Z,14.60
2018-02-23T07:40:46.930Z,16.40
2018-02-23T07:43:14.406Z,16.60
2018-02-23T07:45:42.162Z,16.80
2018-02-23T07:48:09.622Z,16.37
2018-02-23T07:50:37.085Z,16.80
2018-02-23T07:53:04.554Z,15.60
2018-02-23T07:55:32.778Z,17.10
2018-02-23T07:58:00.246Z,16.30
2018-02-23T08:00:27.716Z,16.10
2018-02-23T08:02:55.185Z,15.80
2018-02-23T08:05:22.649Z,16.50
2018-02-23T08:07:50.123Z,16.07
2018-02-23T08:10:18.355Z,17.10
2018-02-23T08:12:45.843Z,16.80
2018-02-23T08:15:14.074Z,17.67
2018-02-23T08:17:41.546Z,16.73
2018-02-23T08:20:09.018Z,16.83
2018-02-23T08:22:36.482Z,17.23
2018-02-23T08:25:03.946Z,16.77
2018-02-23T08:27:32.174Z,16.83
2018-02-23T08:29:59.649Z,18.23
2018-02-23T08:32:27.133Z,17.67
2018-02-23T08:34:55.370Z,17.67
2018-02-23T08:37:22.833Z,16.60
2018-02-23T08:39:50.313Z,18.73
2018-02-23T08:42:17.774Z,17.33
2018-02-23T08:44:45.242Z,16.23
2018-02-23T08:47:13.471Z,17.50
2018-02-23T08:49:40.942Z,19.03
2018-02-23T08:52:08.417Z,16.80
2018-02-23T08:54:35.889Z,18.67
2018-02-23T08:57:04.118Z,20.20
2018-02-23T08:59:31.588Z,17.30
2018-02-23T09:01:59.062Z,17.67
2018-02-23T09:04:26.532Z,17.67
2018-02-23T09:06:54.754Z,18.63
2018-02-23T09:09:22.217Z,18.90
2018-02-23T09:11:49.690Z,18.73
2018-02-23T09:14:17.154Z,18.23
2018-02-23T09:16:44.609Z,18.10
2018-02-23T09:19:12.070Z,19.97
2018-02-23T09:21:39.526Z,18.63
2018-02-23T09:24:06.994Z,18.60
2018-02-23T09:26:34.514Z,19.60
2018-02-23T09:29:01.965Z,18.93
2018-02-23T09:31:30.256Z,18.40
2018-02-23T09:34:09.614Z,18.30
2018-02-23T09:36:37.809Z,20.30
2018-02-23T09:39:06.050Z,19.23
2018-02-23T09:41:33.503Z,18.90
2018-02-23T09:44:00.985Z,22.40
2018-02-23T09:46:28.445Z,18.53
2018-02-23T09:48:56.674Z,19.33
2018-02-23T09:51:24.139Z,21.07
2018-02-23T09:53:51.614Z,17.73
2018-02-23T09:56:19.067Z,20.90
2018-02-23T09:58:46.533Z,22.07
2018-02-23T10:01:13.994Z,19.73
2018-02-23T10:03:41.449Z,19.37
2018-02-23T10:06:08.910Z,19.97
2018-02-23T10:08:36.366Z,20.30
2018-02-23T10:11:03.842Z,21.20
2018-02-23T10:13:32.066Z,21.83
2018-02-23T10:15:59.546Z,20.73
2018-02-23T10:18:26.998Z,19.03
2018-02-23T10:20:54.457Z,20.37
2018-02-23T10:23:21.916Z,20.27
2018-02-23T10:25:49.395Z,20.40
2018-02-23T10:28:17.617Z,21.57
2018-02-23T10:30:45.089Z,19.23
2018-02-23T10:33:12.540Z,21.23
2018-02-23T10:35:40.002Z,21.37
2018-02-23T10:38:07.462Z,22.60
2018-02-23T10:40:34.952Z,21.43
2018-02-23T10:43:02.372Z,22.53
2018-02-23T10:45:29.856Z,19.63
2018-02-23T10:47:58.074Z,21.57
2018-02-23T10:50:25.535Z,21.47
2018-02-23T10:52:52.989Z,19.93
2018-02-23T10:55:20.465Z,21.07
2018-02-23T10:57:47.926Z,20.27
2018-02-23T11:00:15.407Z,21.83
2018-02-23T11:02:42.864Z,22.50
2018-02-23T11:05:10.328Z,22.97
2018-02-23T11:07:38.545Z,22.83
2018-02-23T11:10:06.010Z,20.83
2018-02-23T11:12:33.504Z,22.83
2018-02-23T11:15:00.926Z,21.57
2018-02-23T11:17:28.393Z,21.23
2018-02-23T11:19:55.865Z,20.87
2018-02-23T11:22:23.329Z,21.13
2018-02-23T11:24:50.789Z,21.30
2018-02-23T11:27:18.249Z,23.43
2018-02-23T11:29:45.713Z,21.97
2018-02-23T11:32:13.933Z,19.77
2018-02-23T11:34:41.398Z,22.80
2018-02-23T11:37:08.850Z,20.80
2018-02-23T11:39:36.306Z,22.43
2018-02-23T11:42:03.767Z,21.13
2018-02-23T11:44:31.222Z,23.17
2018-02-23T11:46:58.678Z,22.80
2018-02-23T11:49:26.134Z,20.30
2018-02-23T11:51:53.598Z,22.87
2018-02-23T11:54:21.059Z,23.10
2018-02-23T11:56:48.536Z,23.40
2018-02-23T11:59:16.007Z,23.97
2018-02-23T12:01:43.470Z,22.40
2018-02-23T12:04:11.694Z,22.17
2018-02-23T12:06:39.153Z,23.30
2018-02-23T12:09:06.610Z,22.10
2018-02-23T12:11:34.069Z,21.27
2018-02-23T12:14:01.519Z,21.40
2018-02-23T12:16:28.982Z,23.57
2018-02-23T12:18:56.442Z,22.57
2018-02-23T12:21:23.930Z,22.13
2018-02-23T12:23:51.370Z,23.30
2018-02-23T12:26:18.829Z,24.47
2018-02-23T12:28:46.302Z,21.90
2018-02-23T12:31:13.770Z,22.97
2018-02-23T12:33:41.985Z,23.73
2018-02-23T12:36:09.447Z,22.73
2018-02-23T12:38:36.897Z,23.50
2018-02-23T12:41:04.370Z,24.37
2018-02-23T12:43:31.826Z,25.23
2018-02-23T12:45:59.288Z,24.20
2018-02-23T12:48:26.737Z,24.47
2018-02-23T12:50:54.203Z,24.63
2018-02-23T12:53:21.678Z,24.33
2018-02-23T12:55:49.141Z,23.30
2018-02-23T12:58:16.598Z,24.00
2018-02-23T13:00:44.054Z,22.50
2018-02-23T13:03:11.504Z,22.87
2018-02-23T13:05:39.020Z,22.00
2018-02-23T13:08:07.198Z,23.50
2018-02-23T13:10:34.653Z,24.03
2018-02-23T13:13:02.117Z,24.13
2018-02-23T13:15:29.583Z,24.87
2018-02-23T13:17:57.038Z,22.67
2018-02-23T13:20:24.484Z,23.67
2018-02-23T13:22:51.950Z,22.83
2018-02-23T13:25:20.190Z,22.17
2018-02-23T13:27:53.249Z,23.43
2018-02-23T13:30:21.481Z,25.47
2018-02-23T13:32:48.940Z,22.70
2018-02-23T13:35:16.393Z,22.63
2018-02-23T13:37:44.620Z,22.23
2018-02-23T13:40:12.866Z,23.87
2018-02-23T13:42:40.331Z,22.20
2018-02-23T13:45:07.785Z,22.10
2018-02-23T13:47:35.271Z,22.20
2018-02-23T13:50:03.516Z,21.07
2018-02-23T13:52:30.981Z,25.93
2018-02-23T13:54:58.451Z,24.53
2018-02-23T13:57:26.672Z,24.17
2018-02-23T13:59:54.125Z,24.70
2018-02-23T14:02:21.609Z,22.63
2018-02-23T14:04:49.081Z,20.00
2018-02-23T14:07:22.154Z,22.10
2018-02-23T14:09:49.627Z,19.23
2018-02-23T14:12:17.089Z,21.23
2018-02-23T14:14:44.554Z,22.27
2018-02-23T14:17:12.773Z,21.20
2018-02-23T14:19:40.236Z,20.00
2018-02-23T14:22:07.713Z,22.63
2018-02-23T14:24:35.166Z,21.93
2018-02-23T14:27:02.636Z,22.13
2018-02-23T14:29:30.089Z,20.80
2018-02-23T14:31:57.557Z,21.50
2018-02-23T14:34:25.014Z,23.27
2018-02-23T14:36:53.561Z,22.33
2018-02-23T14:39:21.020Z,24.23
2018-02-23T14:41:48.490Z,20.97
2018-02-23T14:44:15.948Z,22.77
2018-02-23T14:46:43.413Z,21.77
2018-02-23T14:49:19.593Z,23.17
2018-02-23T14:51:47.822Z,23.27
2018-02-23T14:54:15.275Z,20.70
2018-02-23T14:56:42.745Z,23.70
2018-02-23T14:59:10.194Z,21.07
2018-02-23T15:01:37.650Z,21.60
2018-02-23T15:04:05.121Z,21.60
2018-02-23T15:06:32.583Z,20.50
2018-02-23T15:09:00.034Z,22.93
2018-02-23T15:11:27.489Z,22.83
2018-02-23T15:13:54.955Z,22.47
2018-02-23T15:16:22.410Z,22.13
2018-02-23T15:18:49.874Z,21.40
2018-02-23T15:21:17.325Z,22.27
2018-02-23T15:23:44.789Z,22.37
2018-02-23T15:26:12.246Z,22.40
2018-02-23T15:28:39.717Z,23.57
2018-02-23T15:31:19.669Z,25.00
2018-02-23T15:33:47.898Z,24.60
2018-02-23T15:36:15.379Z,24.77
2018-02-23T15:38:43.546Z,22.77
2018-02-23T15:41:11.005Z,22.60
2018-02-23T15:43:38.463Z,23.87
2018-02-23T15:46:05.919Z,20.73
2018-02-23T15:48:39.134Z,23.70
2018-02-23T15:51:13.062Z,21.47
2018-02-23T15:53:40.522Z,21.17
2018-02-23T15:56:07.978Z,21.20
2018-02-23T15:58:48.258Z,21.67
2018-02-23T16:01:15.717Z,22.20
2018-02-23T16:03:43.206Z,23.27
2018-02-23T16:06:10.661Z,21.70
2018-02-23T16:08:38.130Z,22.50
2018-02-23T16:11:05.593Z,22.47
2018-02-23T16:13:33.819Z,21.83
2018-02-23T16:16:01.274Z,20.93
2018-02-23T16:18:28.735Z,24.27
2018-02-23T16:20:56.190Z,22.00
2018-02-23T16:23:23.685Z,21.27
2018-02-23T16:25:51.146Z,23.60
2018-02-23T16:28:18.618Z,21.53
2018-02-23T16:30:46.846Z,22.07
2018-02-23T16:33:14.310Z,21.70
2018-02-23T16:35:41.776Z,21.10
2018-02-23T16:38:09.240Z,20.97
2018-02-23T16:40:36.693Z,23.50
2018-02-23T16:43:04.157Z,22.60
2018-02-23T16:45:31.613Z,21.23
2018-02-23T16:47:59.089Z,20.63
2018-02-23T16:50:27.314Z,21.47
2018-02-23T16:52:54.779Z,21.17
2018-02-23T16:55:22.239Z,20.23
2018-02-23T16:57:50.455Z,21.87
2018-02-23T17:00:18.728Z,21.87
2018-02-23T17:02:46.147Z,22.03
2018-02-23T17:05:13.606Z,22.27
2018-02-23T17:07:41.066Z,21.27
2018-02-23T17:10:08.527Z,20.70
2018-02-23T17:12:35.983Z,22.40
2018-02-23T17:15:03.446Z,22.70
2018-02-23T17:17:30.914Z,23.63
2018-02-23T17:19:59.155Z,22.27
2018-02-23T17:22:26.614Z,22.90
2018-02-23T17:24:54.087Z,22.60
2018-02-23T17:27:21.542Z,21.70
2018-02-23T17:29:48.999Z,23.10
2018-02-23T17:32:16.460Z,21.47
2018-02-23T17:34:43.966Z,18.90
2018-02-23T17:37:11.373Z,23.10
2018-02-23T17:39:38.830Z,22.30
2018-02-23T17:42:06.291Z,22.33
2018-02-23T17:44:33.770Z,20.17
2018-02-23T17:47:01.993Z,21.57
2018-02-23T17:49:29.454Z,22.43
2018-02-23T17:51:56.905Z,20.37
2018-02-23T17:54:24.371Z,22.80
2018-02-23T17:56:51.822Z,21.03
2018-02-23T17:59:19.286Z,21.13
2018-02-23T18:01:46.738Z,22.50
2018-02-23T18:04:14.207Z,19.50
2018-02-23T18:06:41.657Z,21.13
2018-02-23T18:09:09.125Z,23.30
2018-02-23T18:11:36.580Z,23.27
2018-02-23T18:14:04.046Z,23.77
2018-02-23T18:16:32.278Z,21.80
2018-02-23T18:18:59.780Z,23.23
2018-02-23T18:21:27.206Z,21.67
2018-02-23T18:23:54.665Z,20.43
2018-02-23T18:26:22.122Z,21.13
2018-02-23T18:28:49.598Z,22.77
2018-02-23T18:31:17.042Z,21.53
2018-02-23T18:33:44.503Z,21.63
2018-02-23T18:36:11.974Z,24.13
2018-02-23T18:38:39.429Z,22.10
2018-02-23T18:41:06.892Z,21.20
2018-02-23T18:43:35.113Z,22.10
2018-02-23T18:46:02.573Z,24.37
2018-02-23T18:48:30.025Z,24.30
2018-02-23T18:50:57.485Z,22.83
2018-02-23T18:53:24.946Z,21.60
2018-02-23T18:55:52.417Z,22.43
2018-02-23T18:58:19.874Z,23.20
2018-02-23T19:00:47.336Z,20.30
2018-02-23T19:03:14.791Z,21.80
2018-02-23T19:05:42.249Z,21.60
2018-02-23T19:08:09.707Z,20.00
2018-02-23T19:10:37.178Z,20.57
2018-02-23T19:13:04.633Z,21.53
2018-02-23T19:15:32.096Z,20.30
2018-02-23T19:17:59.546Z,20.20
2018-02-23T19:20:27.006Z,20.57
2018-02-23T19:22:54.464Z,20.50
2018-02-23T19:25:22.699Z,21.30
2018-02-23T19:27:50.173Z,21.40
2018-02-23T19:30:17.634Z,21.90
2018-02-23T19:32:45.091Z,21.47
2018-02-23T19:35:12.550Z,21.63
2018-02-23T19:37:40.986Z,20.10
2018-02-23T19:40:08.454Z,22.27
2018-02-23T19:42:35.916Z,21.57
2018-02-23T19:45:03.388Z,20.73
2018-02-23T19:47:30.875Z,21.17
2018-02-23T19:49:58.330Z,21.50
2018-02-23T19:52:25.833Z,21.83
2018-02-23T19:54:53.296Z,20.50
2018-02-23T19:57:20.774Z,20.63
2018-02-23T19:59:48.231Z,22.60
2018-02-23T20:02:16.507Z,22.73
2018-02-23T20:04:43.932Z,21.23
2018-02-23T20:07:11.402Z,22.10
2018-02-23T20:09:39.876Z,23.23
2018-02-23T20:12:07.356Z,21.87
2018-02-23T20:14:34.811Z,22.27
2018-02-23T20:17:02.279Z,22.50
2018-02-23T20:19:29.726Z,22.17
2018-02-23T20:21:57.186Z,24.63
2018-02-23T20:24:24.642Z,22.60
2018-02-23T20:26:52.118Z,22.60
2018-02-23T20:29:19.573Z,23.37
2018-02-23T20:31:47.037Z,21.70
2018-02-23T20:34:15.262Z,23.27
2018-02-23T20:36:42.721Z,52.77
2018-02-23T20:39:10.184Z,27.87
2018-02-23T20:41:37.650Z,25.30
2018-02-23T20:44:05.133Z,25.33
2018-02-23T20:46:32.585Z,25.10
2018-02-23T20:49:00.042Z,23.83
2018-02-23T20:51:27.536Z,23.70
2018-02-23T20:53:54.957Z,25.77
2018-02-23T20:56:22.418Z,26.53
2018-02-23T20:58:49.874Z,26.70
2018-02-23T21:01:17.346Z,25.33
2018-02-23T21:03:45.562Z,26.00
2018-02-23T21:06:13.063Z,25.27
2018-02-23T21:08:40.525Z,25.57
2018-02-23T21:11:08.757Z,25.33
2018-02-23T21:13:36.236Z,26.70
2018-02-23T21:16:03.701Z,26.53
2018-02-23T21:18:31.155Z,26.97
2018-02-23T21:20:58.629Z,25.00
2018-02-23T21:23:26.858Z,24.67
2018-02-23T21:25:54.324Z,26.67
2018-02-23T21:28:21.801Z,26.10
2018-02-23T21:30:49.270Z,25.30
2018-02-23T21:33:16.733Z,24.87
2018-02-23T21:35:44.961Z,24.33
2018-02-23T21:38:12.429Z,27.33
2018-02-23T21:40:39.897Z,27.70
2018-02-23T21:43:07.359Z,27.63
2018-02-23T21:45:34.842Z,26.03
2018-02-23T21:48:02.302Z,23.37
2018-02-23T21:50:30.524Z,27.63
2018-02-23T21:52:58.754Z,25.53
2018-02-23T21:55:26.984Z,25.60
2018-02-23T21:57:54.449Z,24.93
2018-02-23T22:00:21.909Z,26.50
2018-02-23T22:02:49.378Z,24.87
2018-02-23T22:05:16.837Z,24.40
2018-02-23T22:07:44.303Z,25.57
2018-02-23T22:10:12.539Z,25.93
2018-02-23T22:12:40.008Z,28.33
2018-02-23T22:15:07.461Z,24.70
2018-02-23T22:17:34.926Z,26.33
2018-02-23T22:20:02.400Z,26.83
2018-02-23T22:22:29.870Z,26.20
2018-02-23T22:24:58.114Z,25.70
2018-02-23T22:27:25.584Z,26.33
2018-02-23T22:29:53.041Z,25.10
2018-02-23T22:32:20.513Z,25.30
2018-02-23T22:34:48.745Z,24.53
2018-02-23T22:37:16.207Z,24.03
2018-02-23T22:39:43.681Z,26.43
2018-02-23T22:42:11.151Z,26.63
2018-02-23T22:44:39.370Z,25.60
2018-02-23T22:47:06.839Z,26.20
2018-02-23T22:49:34.292Z,26.47
2018-02-23T22:52:01.761Z,25.80
2018-02-23T22:54:29.555Z,26.97
2018-02-23T22:56:57.013Z,26.23
2018-02-23T22:59:25.238Z,26.20
2018-02-23T23:01:52.702Z,26.40
2018-02-23T23:04:20.190Z,24.80
2018-02-23T23:06:47.674Z,24.20
2018-02-23T23:09:15.898Z,26.00
2018-02-23T23:11:43.358Z,24.30
2018-02-23T23:14:10.813Z,25.60
2018-02-23T23:16:38.285Z,27.43
2018-02-23T23:19:05.743Z,24.53
2018-02-23T23:21:33.209Z,25.17
2018-02-23T23:24:02.667Z,24.43
2018-02-23T23:26:30.122Z,25.00
2018-02-23T23:28:57.585Z,25.50
2018-02-23T23:31:25.056Z,25.97
2018-02-23T23:33:52.530Z,26.40
2018-02-23T23:36:20.000Z,26.13
2018-02-23T23:38:47.476Z,22.87
2018-02-23T23:41:14.916Z,26.53
2018-02-23T23:43:43.145Z,26.07
2018-02-23T23:46:10.619Z,28.80
2018-02-23T23:48:38.090Z,26.27
2018-02-23T23:51:05.542Z,25.80
2018-02-23T23:53:33.021Z,23.93
2018-02-23T23:56:01.259Z,25.50
2018-02-23T23:58:28.721Z,24.90
